sensor_id;sensor_type;location;lat;lon;timestamp;P1;durP1;ratioP1;P2;durP2;ratioP2
8694;SDS011;65580;49.446;6.854;2023-03-01T00:00:53;12.63;;;5.78;;
8694;SDS011;65580;49.446;6.854;2023-03-01T00:04:57;17.35;;;5.97;;
8694;SDS011;65580;49.446;6.854;2023-03-01T00:09:00;12.95;;;5.82;;
8694;SDS011;65580;49.446;6.854;2023-03-01T00:13:05;11.77;;;5.38;;
8694;SDS011;65580;49.446;6.854;2023-03-01T00:17:09;13.25;;;5.60;;
8694;SDS011;65580;49.446;6.854;2023-03-01T00:21:12;13.82;;;6.60;;
8694;SDS011;65580;49.446;6.854;2023-03-01T00:25:16;12.38;;;5.28;;
8694;SDS011;65580;49.446;6.854;2023-03-01T00:29:20;16.88;;;6.53;;
8694;SDS011;65580;49.446;6.854;2023-03-01T00:37:27;13.88;;;5.65;;
8694;SDS011;65580;49.446;6.854;2023-03-01T00:41:30;17.15;;;6.40;;
8694;SDS011;65580;49.446;6.854;2023-03-01T00:45:37;17.58;;;7.22;;
8694;SDS011;65580;49.446;6.854;2023-03-01T00:53:44;15.35;;;6.35;;
8694;SDS011;65580;49.446;6.854;2023-03-01T00:57:48;13.48;;;5.15;;
8694;SDS011;65580;49.446;6.854;2023-03-01T01:01:53;13.40;;;5.65;;
8694;SDS011;65580;49.446;6.854;2023-03-01T01:09:59;12.77;;;6.00;;
8694;SDS011;65580;49.446;6.854;2023-03-01T01:14:03;12.48;;;6.00;;
8694;SDS011;65580;49.446;6.854;2023-03-01T01:18:08;17.85;;;6.53;;
8694;SDS011;65580;49.446;6.854;2023-03-01T01:22:11;14.27;;;5.68;;
8694;SDS011;65580;49.446;6.854;2023-03-01T01:26:15;15.95;;;6.28;;
8694;SDS011;65580;49.446;6.854;2023-03-01T01:30:20;14.30;;;6.15;;
8694;SDS011;65580;49.446;6.854;2023-03-01T01:34:25;16.40;;;6.30;;
8694;SDS011;65580;49.446;6.854;2023-03-01T01:38:28;14.77;;;7.38;;
8694;SDS011;65580;49.446;6.854;2023-03-01T01:42:32;18.15;;;7.47;;
8694;SDS011;65580;49.446;6.854;2023-03-01T01:46:35;17.77;;;6.45;;
8694;SDS011;65580;49.446;6.854;2023-03-01T01:50:42;19.40;;;7.53;;
8694;SDS011;65580;49.446;6.854;2023-03-01T01:54:47;14.82;;;6.97;;
8694;SDS011;65580;49.446;6.854;2023-03-01T01:58:54;15.57;;;6.95;;
8694;SDS011;65580;49.446;6.854;2023-03-01T02:02:59;14.35;;;6.70;;
8694;SDS011;65580;49.446;6.854;2023-03-01T02:11:08;15.32;;;6.03;;
8694;SDS011;65580;49.446;6.854;2023-03-01T02:15:12;15.70;;;6.63;;
8694;SDS011;65580;49.446;6.854;2023-03-01T02:19:20;15.05;;;6.65;;
8694;SDS011;65580;49.446;6.854;2023-03-01T02:23:30;14.20;;;6.28;;
8694;SDS011;65580;49.446;6.854;2023-03-01T02:27:38;13.95;;;6.15;;
8694;SDS011;65580;49.446;6.854;2023-03-01T02:31:45;15.90;;;6.90;;
8694;SDS011;65580;49.446;6.854;2023-03-01T02:35:49;15.02;;;6.47;;
8694;SDS011;65580;49.446;6.854;2023-03-01T02:39:54;17.73;;;6.93;;
8694;SDS011;65580;49.446;6.854;2023-03-01T02:44:01;18.02;;;6.90;;
8694;SDS011;65580;49.446;6.854;2023-03-01T02:48:06;15.73;;;6.75;;
8694;SDS011;65580;49.446;6.854;2023-03-01T02:56:43;18.08;;;6.78;;
8694;SDS011;65580;49.446;6.854;2023-03-01T03:00:49;19.00;;;7.45;;
8694;SDS011;65580;49.446;6.854;2023-03-01T03:04:54;17.90;;;7.07;;
8694;SDS011;65580;49.446;6.854;2023-03-01T03:08:58;18.88;;;6.68;;
8694;SDS011;65580;49.446;6.854;2023-03-01T03:13:02;17.02;;;8.23;;
8694;SDS011;65580;49.446;6.854;2023-03-01T03:17:07;20.23;;;7.07;;
8694;SDS011;65580;49.446;6.854;2023-03-01T03:21:12;15.05;;;6.50;;
8694;SDS011;65580;49.446;6.854;2023-03-01T03:25:16;15.35;;;6.63;;
8694;SDS011;65580;49.446;6.854;2023-03-01T03:29:20;21.73;;;8.32;;
8694;SDS011;65580;49.446;6.854;2023-03-01T03:33:24;20.52;;;9.20;;
8694;SDS011;65580;49.446;6.854;2023-03-01T03:37:29;24.20;;;9.85;;
8694;SDS011;65580;49.446;6.854;2023-03-01T03:41:49;20.45;;;8.90;;
8694;SDS011;65580;49.446;6.854;2023-03-01T03:45:52;18.65;;;7.93;;
8694;SDS011;65580;49.446;6.854;2023-03-01T03:49:58;17.83;;;7.28;;
8694;SDS011;65580;49.446;6.854;2023-03-01T03:54:03;19.77;;;7.97;;
8694;SDS011;65580;49.446;6.854;2023-03-01T03:58:07;24.92;;;9.38;;
8694;SDS011;65580;49.446;6.854;2023-03-01T04:02:11;12.43;;;5.45;;
8694;SDS011;65580;49.446;6.854;2023-03-01T04:06:23;19.77;;;8.10;;
8694;SDS011;65580;49.446;6.854;2023-03-01T04:10:28;21.33;;;8.93;;
8694;SDS011;65580;49.446;6.854;2023-03-01T04:14:33;27.05;;;9.82;;
8694;SDS011;65580;49.446;6.854;2023-03-01T04:18:36;25.38;;;9.23;;
8694;SDS011;65580;49.446;6.854;2023-03-01T04:22:40;16.20;;;7.38;;
8694;SDS011;65580;49.446;6.854;2023-03-01T04:26:45;27.23;;;9.52;;
8694;SDS011;65580;49.446;6.854;2023-03-01T04:30:48;19.50;;;8.05;;
8694;SDS011;65580;49.446;6.854;2023-03-01T04:34:52;22.45;;;8.70;;
8694;SDS011;65580;49.446;6.854;2023-03-01T04:38:55;22.20;;;8.07;;
8694;SDS011;65580;49.446;6.854;2023-03-01T04:43:00;20.50;;;7.60;;
8694;SDS011;65580;49.446;6.854;2023-03-01T04:47:04;16.40;;;7.25;;
8694;SDS011;65580;49.446;6.854;2023-03-01T04:51:08;22.70;;;9.60;;
8694;SDS011;65580;49.446;6.854;2023-03-01T04:55:15;26.15;;;9.80;;
8694;SDS011;65580;49.446;6.854;2023-03-01T04:59:19;24.08;;;9.27;;
8694;SDS011;65580;49.446;6.854;2023-03-01T05:03:24;22.25;;;9.15;;
8694;SDS011;65580;49.446;6.854;2023-03-01T05:07:27;22.92;;;9.55;;
8694;SDS011;65580;49.446;6.854;2023-03-01T05:11:30;23.92;;;8.70;;
8694;SDS011;65580;49.446;6.854;2023-03-01T05:15:39;21.20;;;9.27;;
8694;SDS011;65580;49.446;6.854;2023-03-01T05:19:42;25.88;;;8.88;;
8694;SDS011;65580;49.446;6.854;2023-03-01T05:23:45;30.15;;;10.02;;
8694;SDS011;65580;49.446;6.854;2023-03-01T05:27:49;28.88;;;9.73;;
8694;SDS011;65580;49.446;6.854;2023-03-01T05:31:56;25.55;;;10.40;;
8694;SDS011;65580;49.446;6.854;2023-03-01T05:36:00;28.30;;;10.50;;
8694;SDS011;65580;49.446;6.854;2023-03-01T05:40:04;29.13;;;9.30;;
8694;SDS011;65580;49.446;6.854;2023-03-01T05:44:08;25.02;;;10.20;;
8694;SDS011;65580;49.446;6.854;2023-03-01T05:48:15;21.75;;;8.35;;
8694;SDS011;65580;49.446;6.854;2023-03-01T05:52:17;21.02;;;8.63;;
8694;SDS011;65580;49.446;6.854;2023-03-01T05:56:21;22.92;;;9.55;;
8694;SDS011;65580;49.446;6.854;2023-03-01T06:00:25;21.13;;;8.90;;
8694;SDS011;65580;49.446;6.854;2023-03-01T06:04:29;26.70;;;10.00;;
8694;SDS011;65580;49.446;6.854;2023-03-01T06:08:32;25.80;;;10.80;;
8694;SDS011;65580;49.446;6.854;2023-03-01T06:12:35;27.45;;;10.77;;
8694;SDS011;65580;49.446;6.854;2023-03-01T06:16:39;26.27;;;9.57;;
8694;SDS011;65580;49.446;6.854;2023-03-01T06:20:44;28.67;;;9.18;;
8694;SDS011;65580;49.446;6.854;2023-03-01T06:24:47;24.73;;;10.63;;
8694;SDS011;65580;49.446;6.854;2023-03-01T06:28:50;27.55;;;9.57;;
8694;SDS011;65580;49.446;6.854;2023-03-01T06:32:53;25.60;;;10.55;;
8694;SDS011;65580;49.446;6.854;2023-03-01T06:37:03;26.35;;;10.30;;
8694;SDS011;65580;49.446;6.854;2023-03-01T06:41:07;29.77;;;10.38;;
8694;SDS011;65580;49.446;6.854;2023-03-01T06:45:11;26.90;;;11.23;;
8694;SDS011;65580;49.446;6.854;2023-03-01T06:49:14;28.77;;;10.35;;
8694;SDS011;65580;49.446;6.854;2023-03-01T06:57:24;22.20;;;8.88;;
8694;SDS011;65580;49.446;6.854;2023-03-01T07:01:27;27.77;;;10.65;;
8694;SDS011;65580;49.446;6.854;2023-03-01T07:05:31;28.70;;;11.15;;
8694;SDS011;65580;49.446;6.854;2023-03-01T07:09:37;24.67;;;9.25;;
8694;SDS011;65580;49.446;6.854;2023-03-01T07:13:40;22.25;;;9.23;;
8694;SDS011;65580;49.446;6.854;2023-03-01T07:17:43;24.00;;;9.90;;
8694;SDS011;65580;49.446;6.854;2023-03-01T07:21:49;21.52;;;9.23;;
8694;SDS011;65580;49.446;6.854;2023-03-01T07:25:54;24.05;;;9.05;;
8694;SDS011;65580;49.446;6.854;2023-03-01T07:34:00;24.20;;;9.80;;
8694;SDS011;65580;49.446;6.854;2023-03-01T07:38:03;19.80;;;9.02;;
8694;SDS011;65580;49.446;6.854;2023-03-01T07:42:07;23.80;;;9.43;;
8694;SDS011;65580;49.446;6.854;2023-03-01T07:46:10;23.52;;;10.13;;
8694;SDS011;65580;49.446;6.854;2023-03-01T07:50:14;25.30;;;10.48;;
8694;SDS011;65580;49.446;6.854;2023-03-01T07:54:17;23.13;;;9.80;;
8694;SDS011;65580;49.446;6.854;2023-03-01T07:58:22;23.45;;;9.50;;
8694;SDS011;65580;49.446;6.854;2023-03-01T08:02:25;28.83;;;10.15;;
8694;SDS011;65580;49.446;6.854;2023-03-01T08:06:30;20.35;;;9.68;;
8694;SDS011;65580;49.446;6.854;2023-03-01T08:10:34;24.30;;;10.52;;
8694;SDS011;65580;49.446;6.854;2023-03-01T08:14:40;23.35;;;10.05;;
8694;SDS011;65580;49.446;6.854;2023-03-01T08:18:52;22.00;;;10.38;;
8694;SDS011;65580;49.446;6.854;2023-03-01T08:22:58;25.45;;;10.65;;
8694;SDS011;65580;49.446;6.854;2023-03-01T08:27:05;21.48;;;9.55;;
8694;SDS011;65580;49.446;6.854;2023-03-01T08:31:15;25.20;;;10.02;;
8694;SDS011;65580;49.446;6.854;2023-03-01T08:35:20;22.73;;;9.82;;
8694;SDS011;65580;49.446;6.854;2023-03-01T08:39:23;23.38;;;10.10;;
8694;SDS011;65580;49.446;6.854;2023-03-01T08:43:26;20.10;;;9.48;;
8694;SDS011;65580;49.446;6.854;2023-03-01T08:47:31;19.83;;;9.23;;
8694;SDS011;65580;49.446;6.854;2023-03-01T08:51:35;20.33;;;9.43;;
8694;SDS011;65580;49.446;6.854;2023-03-01T08:59:42;19.98;;;9.55;;
8694;SDS011;65580;49.446;6.854;2023-03-01T09:03:53;24.65;;;9.75;;
8694;SDS011;65580;49.446;6.854;2023-03-01T09:07:58;21.25;;;10.05;;
8694;SDS011;65580;49.446;6.854;2023-03-01T09:12:02;22.98;;;11.45;;
8694;SDS011;65580;49.446;6.854;2023-03-01T09:16:10;22.45;;;11.00;;
8694;SDS011;65580;49.446;6.854;2023-03-01T09:20:21;25.23;;;10.25;;
8694;SDS011;65580;49.446;6.854;2023-03-01T09:24:33;20.48;;;9.70;;
8694;SDS011;65580;49.446;6.854;2023-03-01T09:28:36;23.42;;;10.50;;
8694;SDS011;65580;49.446;6.854;2023-03-01T09:32:43;21.98;;;11.77;;
8694;SDS011;65580;49.446;6.854;2023-03-01T09:36:51;20.98;;;10.05;;
8694;SDS011;65580;49.446;6.854;2023-03-01T09:40:54;21.38;;;10.93;;
8694;SDS011;65580;49.446;6.854;2023-03-01T09:44:58;23.02;;;11.23;;
8694;SDS011;65580;49.446;6.854;2023-03-01T09:49:05;19.85;;;9.23;;
8694;SDS011;65580;49.446;6.854;2023-03-01T09:53:16;21.85;;;10.05;;
8694;SDS011;65580;49.446;6.854;2023-03-01T09:57:24;21.20;;;10.02;;
8694;SDS011;65580;49.446;6.854;2023-03-01T10:01:32;24.50;;;10.77;;
8694;SDS011;65580;49.446;6.854;2023-03-01T10:05:41;21.48;;;10.68;;
8694;SDS011;65580;49.446;6.854;2023-03-01T10:09:51;19.67;;;10.00;;
8694;SDS011;65580;49.446;6.854;2023-03-01T10:13:58;20.38;;;9.65;;
8694;SDS011;65580;49.446;6.854;2023-03-01T10:18:13;19.17;;;10.48;;
8694;SDS011;65580;49.446;6.854;2023-03-01T10:22:20;19.98;;;9.73;;
8694;SDS011;65580;49.446;6.854;2023-03-01T10:26:36;20.63;;;10.00;;
8694;SDS011;65580;49.446;6.854;2023-03-01T10:30:47;20.63;;;10.48;;
8694;SDS011;65580;49.446;6.854;2023-03-01T10:34:51;22.05;;;10.93;;
8694;SDS011;65580;49.446;6.854;2023-03-01T10:38:56;20.45;;;10.18;;
8694;SDS011;65580;49.446;6.854;2023-03-01T10:43:02;19.55;;;8.88;;
8694;SDS011;65580;49.446;6.854;2023-03-01T10:47:12;16.67;;;9.07;;
8694;SDS011;65580;49.446;6.854;2023-03-01T10:51:17;20.35;;;9.88;;
8694;SDS011;65580;49.446;6.854;2023-03-01T10:55:24;21.83;;;10.00;;
8694;SDS011;65580;49.446;6.854;2023-03-01T10:59:33;18.25;;;9.48;;
8694;SDS011;65580;49.446;6.854;2023-03-01T11:03:37;20.65;;;10.20;;
8694;SDS011;65580;49.446;6.854;2023-03-01T11:07:47;21.35;;;10.23;;
8694;SDS011;65580;49.446;6.854;2023-03-01T11:11:51;19.38;;;9.55;;
8694;SDS011;65580;49.446;6.854;2023-03-01T11:15:59;19.98;;;8.70;;
8694;SDS011;65580;49.446;6.854;2023-03-01T11:20:07;20.13;;;9.10;;
8694;SDS011;65580;49.446;6.854;2023-03-01T11:24:27;18.70;;;9.02;;
8694;SDS011;65580;49.446;6.854;2023-03-01T11:28:33;20.77;;;9.55;;
8694;SDS011;65580;49.446;6.854;2023-03-01T11:32:40;19.15;;;8.63;;
8694;SDS011;65580;49.446;6.854;2023-03-01T11:36:46;20.60;;;9.82;;
8694;SDS011;65580;49.446;6.854;2023-03-01T11:40:57;17.75;;;9.20;;
8694;SDS011;65580;49.446;6.854;2023-03-01T11:45:08;21.75;;;9.70;;
8694;SDS011;65580;49.446;6.854;2023-03-01T11:49:26;20.05;;;11.88;;
8694;SDS011;65580;49.446;6.854;2023-03-01T11:53:50;15.88;;;8.93;;
8694;SDS011;65580;49.446;6.854;2023-03-01T11:58:08;18.55;;;9.43;;
8694;SDS011;65580;49.446;6.854;2023-03-01T12:02:37;17.05;;;9.02;;
8694;SDS011;65580;49.446;6.854;2023-03-01T12:06:52;20.73;;;9.13;;
8694;SDS011;65580;49.446;6.854;2023-03-01T12:11:01;15.20;;;8.05;;
8694;SDS011;65580;49.446;6.854;2023-03-01T12:19:45;19.50;;;9.18;;
8694;SDS011;65580;49.446;6.854;2023-03-01T12:24:24;18.55;;;8.95;;
8694;SDS011;65580;49.446;6.854;2023-03-01T12:28:46;17.20;;;8.55;;
8694;SDS011;65580;49.446;6.854;2023-03-01T12:32:59;19.40;;;9.13;;
8694;SDS011;65580;49.446;6.854;2023-03-01T12:37:12;18.67;;;8.57;;
8694;SDS011;65580;49.446;6.854;2023-03-01T12:41:29;16.98;;;9.13;;
8694;SDS011;65580;49.446;6.854;2023-03-01T12:45:42;21.23;;;8.75;;
8694;SDS011;65580;49.446;6.854;2023-03-01T12:49:52;20.58;;;9.55;;
8694;SDS011;65580;49.446;6.854;2023-03-01T12:53:58;17.77;;;8.95;;
8694;SDS011;65580;49.446;6.854;2023-03-01T12:58:07;17.67;;;10.25;;
8694;SDS011;65580;49.446;6.854;2023-03-01T13:02:22;16.85;;;8.70;;
8694;SDS011;65580;49.446;6.854;2023-03-01T13:06:30;19.42;;;9.65;;
8694;SDS011;65580;49.446;6.854;2023-03-01T13:10:46;17.60;;;9.15;;
8694;SDS011;65580;49.446;6.854;2023-03-01T13:14:54;20.17;;;9.82;;
8694;SDS011;65580;49.446;6.854;2023-03-01T13:19:05;15.68;;;8.65;;
8694;SDS011;65580;49.446;6.854;2023-03-01T13:23:11;19.85;;;8.82;;
8694;SDS011;65580;49.446;6.854;2023-03-01T13:27:22;17.95;;;9.13;;
8694;SDS011;65580;49.446;6.854;2023-03-01T13:31:56;18.90;;;8.40;;
8694;SDS011;65580;49.446;6.854;2023-03-01T13:36:00;16.10;;;8.55;;
8694;SDS011;65580;49.446;6.854;2023-03-01T13:40:05;14.82;;;7.78;;
8694;SDS011;65580;49.446;6.854;2023-03-01T13:44:26;16.80;;;9.13;;
8694;SDS011;65580;49.446;6.854;2023-03-01T13:48:36;16.90;;;8.32;;
8694;SDS011;65580;49.446;6.854;2023-03-01T13:52:40;16.45;;;8.43;;
8694;SDS011;65580;49.446;6.854;2023-03-01T13:56:44;18.13;;;8.85;;
8694;SDS011;65580;49.446;6.854;2023-03-01T14:00:54;13.55;;;7.78;;
8694;SDS011;65580;49.446;6.854;2023-03-01T14:05:09;16.50;;;8.23;;
8694;SDS011;65580;49.446;6.854;2023-03-01T14:09:14;17.23;;;8.20;;
8694;SDS011;65580;49.446;6.854;2023-03-01T14:13:23;14.18;;;7.00;;
8694;SDS011;65580;49.446;6.854;2023-03-01T14:17:43;14.38;;;7.35;;
8694;SDS011;65580;49.446;6.854;2023-03-01T14:22:00;15.57;;;7.65;;
8694;SDS011;65580;49.446;6.854;2023-03-01T14:26:08;16.58;;;7.43;;
8694;SDS011;65580;49.446;6.854;2023-03-01T14:30:15;16.35;;;7.45;;
8694;SDS011;65580;49.446;6.854;2023-03-01T14:34:25;15.07;;;7.97;;
8694;SDS011;65580;49.446;6.854;2023-03-01T14:38:30;12.15;;;6.35;;
8694;SDS011;65580;49.446;6.854;2023-03-01T14:42:36;13.85;;;7.03;;
8694;SDS011;65580;49.446;6.854;2023-03-01T14:46:39;14.68;;;6.88;;
8694;SDS011;65580;49.446;6.854;2023-03-01T14:50:44;14.80;;;6.95;;
8694;SDS011;65580;49.446;6.854;2023-03-01T14:54:50;17.52;;;7.20;;
8694;SDS011;65580;49.446;6.854;2023-03-01T14:58:53;13.25;;;6.93;;
8694;SDS011;65580;49.446;6.854;2023-03-01T15:03:01;12.82;;;6.38;;
8694;SDS011;65580;49.446;6.854;2023-03-01T15:07:11;16.52;;;7.13;;
8694;SDS011;65580;49.446;6.854;2023-03-01T15:11:19;12.50;;;6.78;;
8694;SDS011;65580;49.446;6.854;2023-03-01T15:15:33;15.18;;;6.32;;
8694;SDS011;65580;49.446;6.854;2023-03-01T15:19:38;11.38;;;5.50;;
8694;SDS011;65580;49.446;6.854;2023-03-01T15:23:47;11.43;;;5.43;;
8694;SDS011;65580;49.446;6.854;2023-03-01T15:27:56;12.13;;;6.13;;
8694;SDS011;65580;49.446;6.854;2023-03-01T15:32:01;11.02;;;6.15;;
8694;SDS011;65580;49.446;6.854;2023-03-01T15:40:33;13.38;;;6.55;;
8694;SDS011;65580;49.446;6.854;2023-03-01T15:44:40;13.70;;;6.03;;
8694;SDS011;65580;49.446;6.854;2023-03-01T15:48:47;15.38;;;6.47;;
8694;SDS011;65580;49.446;6.854;2023-03-01T15:52:54;16.02;;;7.53;;
8694;SDS011;65580;49.446;6.854;2023-03-01T15:56:57;17.83;;;7.93;;
8694;SDS011;65580;49.446;6.854;2023-03-01T16:01:02;13.68;;;7.05;;
8694;SDS011;65580;49.446;6.854;2023-03-01T16:05:05;15.27;;;7.40;;
8694;SDS011;65580;49.446;6.854;2023-03-01T16:09:11;17.10;;;7.60;;
8694;SDS011;65580;49.446;6.854;2023-03-01T16:13:14;16.42;;;7.47;;
8694;SDS011;65580;49.446;6.854;2023-03-01T16:17:19;17.00;;;7.90;;
8694;SDS011;65580;49.446;6.854;2023-03-01T16:21:24;17.23;;;7.82;;
8694;SDS011;65580;49.446;6.854;2023-03-01T16:25:27;14.82;;;7.18;;
8694;SDS011;65580;49.446;6.854;2023-03-01T16:29:32;17.55;;;7.72;;
8694;SDS011;65580;49.446;6.854;2023-03-01T16:33:36;16.92;;;7.95;;
8694;SDS011;65580;49.446;6.854;2023-03-01T16:37:40;16.90;;;8.00;;
8694;SDS011;65580;49.446;6.854;2023-03-01T16:41:43;13.57;;;6.82;;
8694;SDS011;65580;49.446;6.854;2023-03-01T16:45:46;14.52;;;7.07;;
8694;SDS011;65580;49.446;6.854;2023-03-01T16:49:52;14.68;;;6.80;;
8694;SDS011;65580;49.446;6.854;2023-03-01T16:53:55;16.92;;;6.65;;
8694;SDS011;65580;49.446;6.854;2023-03-01T16:57:58;12.30;;;6.18;;
8694;SDS011;65580;49.446;6.854;2023-03-01T17:02:01;14.80;;;6.15;;
8694;SDS011;65580;49.446;6.854;2023-03-01T17:06:06;15.18;;;5.85;;
8694;SDS011;65580;49.446;6.854;2023-03-01T17:10:13;14.93;;;5.13;;
8694;SDS011;65580;49.446;6.854;2023-03-01T17:14:16;13.40;;;6.30;;
8694;SDS011;65580;49.446;6.854;2023-03-01T17:18:18;12.15;;;6.22;;
8694;SDS011;65580;49.446;6.854;2023-03-01T17:22:23;12.45;;;5.60;;
8694;SDS011;65580;49.446;6.854;2023-03-01T17:30:30;13.60;;;5.90;;
8694;SDS011;65580;49.446;6.854;2023-03-01T17:34:33;12.68;;;5.43;;
8694;SDS011;65580;49.446;6.854;2023-03-01T17:38:38;11.80;;;5.53;;
8694;SDS011;65580;49.446;6.854;2023-03-01T17:42:42;13.00;;;5.28;;
8694;SDS011;65580;49.446;6.854;2023-03-01T17:46:44;11.88;;;5.63;;
8694;SDS011;65580;49.446;6.854;2023-03-01T17:50:48;10.80;;;5.10;;
8694;SDS011;65580;49.446;6.854;2023-03-01T17:54:53;15.00;;;5.38;;
8694;SDS011;65580;49.446;6.854;2023-03-01T17:58:56;11.88;;;5.65;;
8694;SDS011;65580;49.446;6.854;2023-03-01T18:03:01;12.13;;;5.47;;
8694;SDS011;65580;49.446;6.854;2023-03-01T18:07:06;12.25;;;5.22;;
8694;SDS011;65580;49.446;6.854;2023-03-01T18:11:12;12.90;;;6.07;;
8694;SDS011;65580;49.446;6.854;2023-03-01T18:15:16;11.75;;;5.65;;
8694;SDS011;65580;49.446;6.854;2023-03-01T18:19:20;10.90;;;5.07;;
8694;SDS011;65580;49.446;6.854;2023-03-01T18:23:24;11.90;;;5.47;;
8694;SDS011;65580;49.446;6.854;2023-03-01T18:27:30;11.98;;;5.32;;
8694;SDS011;65580;49.446;6.854;2023-03-01T18:31:33;12.55;;;5.50;;
8694;SDS011;65580;49.446;6.854;2023-03-01T18:35:39;11.18;;;4.97;;
8694;SDS011;65580;49.446;6.854;2023-03-01T18:39:43;11.35;;;5.43;;
8694;SDS011;65580;49.446;6.854;2023-03-01T18:43:48;14.93;;;5.43;;
8694;SDS011;65580;49.446;6.854;2023-03-01T18:47:52;12.10;;;5.28;;
8694;SDS011;65580;49.446;6.854;2023-03-01T18:51:55;13.38;;;5.97;;
8694;SDS011;65580;49.446;6.854;2023-03-01T18:55:59;12.65;;;5.78;;
8694;SDS011;65580;49.446;6.854;2023-03-01T19:00:05;12.35;;;5.68;;
8694;SDS011;65580;49.446;6.854;2023-03-01T19:04:09;11.25;;;4.95;;
8694;SDS011;65580;49.446;6.854;2023-03-01T19:08:15;16.55;;;6.00;;
8694;SDS011;65580;49.446;6.854;2023-03-01T19:12:18;12.35;;;4.95;;
8694;SDS011;65580;49.446;6.854;2023-03-01T19:16:24;13.93;;;5.90;;
8694;SDS011;65580;49.446;6.854;2023-03-01T19:20:29;14.05;;;5.80;;
8694;SDS011;65580;49.446;6.854;2023-03-01T19:24:33;13.05;;;6.00;;
8694;SDS011;65580;49.446;6.854;2023-03-01T19:28:37;13.00;;;5.97;;
8694;SDS011;65580;49.446;6.854;2023-03-01T19:32:42;12.52;;;5.25;;
8694;SDS011;65580;49.446;6.854;2023-03-01T19:36:46;13.20;;;5.60;;
8694;SDS011;65580;49.446;6.854;2023-03-01T19:40:49;12.98;;;5.68;;
8694;SDS011;65580;49.446;6.854;2023-03-01T19:44:53;15.07;;;6.10;;
8694;SDS011;65580;49.446;6.854;2023-03-01T19:48:58;12.93;;;5.38;;
8694;SDS011;65580;49.446;6.854;2023-03-01T19:53:04;10.68;;;5.30;;
8694;SDS011;65580;49.446;6.854;2023-03-01T19:57:07;12.27;;;5.40;;
8694;SDS011;65580;49.446;6.854;2023-03-01T20:01:16;11.38;;;5.55;;
8694;SDS011;65580;49.446;6.854;2023-03-01T20:05:22;12.52;;;5.55;;
8694;SDS011;65580;49.446;6.854;2023-03-01T20:09:25;11.70;;;5.60;;
8694;SDS011;65580;49.446;6.854;2023-03-01T20:13:29;14.27;;;6.25;;
8694;SDS011;65580;49.446;6.854;2023-03-01T20:17:33;13.48;;;6.10;;
8694;SDS011;65580;49.446;6.854;2023-03-01T20:21:38;13.15;;;5.68;;
8694;SDS011;65580;49.446;6.854;2023-03-01T20:25:41;14.63;;;5.70;;
8694;SDS011;65580;49.446;6.854;2023-03-01T20:29:44;16.73;;;6.18;;
8694;SDS011;65580;49.446;6.854;2023-03-01T20:33:48;13.63;;;6.25;;
8694;SDS011;65580;49.446;6.854;2023-03-01T20:37:53;13.02;;;5.40;;
8694;SDS011;65580;49.446;6.854;2023-03-01T20:41:57;17.38;;;5.85;;
8694;SDS011;65580;49.446;6.854;2023-03-01T20:46:01;14.38;;;5.60;;
8694;SDS011;65580;49.446;6.854;2023-03-01T20:50:06;12.23;;;5.78;;
8694;SDS011;65580;49.446;6.854;2023-03-01T20:54:11;16.45;;;5.85;;
8694;SDS011;65580;49.446;6.854;2023-03-01T20:58:16;16.00;;;5.72;;
8694;SDS011;65580;49.446;6.854;2023-03-01T21:02:19;14.55;;;5.88;;
8694;SDS011;65580;49.446;6.854;2023-03-01T21:06:23;12.77;;;5.45;;
8694;SDS011;65580;49.446;6.854;2023-03-01T21:10:28;20.85;;;6.63;;
8694;SDS011;65580;49.446;6.854;2023-03-01T21:14:31;12.88;;;6.03;;
8694;SDS011;65580;49.446;6.854;2023-03-01T21:18:42;14.15;;;5.80;;
8694;SDS011;65580;49.446;6.854;2023-03-01T21:22:46;15.48;;;6.00;;
8694;SDS011;65580;49.446;6.854;2023-03-01T21:26:51;13.38;;;5.32;;
8694;SDS011;65580;49.446;6.854;2023-03-01T21:30:54;13.27;;;5.47;;
8694;SDS011;65580;49.446;6.854;2023-03-01T21:34:58;14.90;;;6.30;;
8694;SDS011;65580;49.446;6.854;2023-03-01T21:39:02;14.35;;;6.05;;
8694;SDS011;65580;49.446;6.854;2023-03-01T21:43:08;13.50;;;5.65;;
8694;SDS011;65580;49.446;6.854;2023-03-01T21:47:13;15.18;;;6.20;;
8694;SDS011;65580;49.446;6.854;2023-03-01T21:51:17;12.77;;;5.07;;
8694;SDS011;65580;49.446;6.854;2023-03-01T21:55:22;11.63;;;5.03;;
8694;SDS011;65580;49.446;6.854;2023-03-01T21:59:27;16.70;;;5.82;;
8694;SDS011;65580;49.446;6.854;2023-03-01T22:03:30;14.82;;;6.45;;
8694;SDS011;65580;49.446;6.854;2023-03-01T22:07:34;16.50;;;6.95;;
8694;SDS011;65580;49.446;6.854;2023-03-01T22:11:38;15.15;;;5.95;;
8694;SDS011;65580;49.446;6.854;2023-03-01T22:15:44;13.20;;;5.82;;
8694;SDS011;65580;49.446;6.854;2023-03-01T22:19:48;15.30;;;6.00;;
8694;SDS011;65580;49.446;6.854;2023-03-01T22:23:52;16.27;;;6.20;;
8694;SDS011;65580;49.446;6.854;2023-03-01T22:27:56;15.77;;;6.70;;
8694;SDS011;65580;49.446;6.854;2023-03-01T22:32:03;17.73;;;6.97;;
8694;SDS011;65580;49.446;6.854;2023-03-01T22:36:07;19.17;;;6.80;;
8694;SDS011;65580;49.446;6.854;2023-03-01T22:40:10;16.55;;;6.72;;
8694;SDS011;65580;49.446;6.854;2023-03-01T22:44:15;16.88;;;6.60;;
8694;SDS011;65580;49.446;6.854;2023-03-01T22:48:22;17.15;;;6.93;;
8694;SDS011;65580;49.446;6.854;2023-03-01T22:52:26;16.63;;;6.82;;
8694;SDS011;65580;49.446;6.854;2023-03-01T22:56:30;12.00;;;5.85;;
8694;SDS011;65580;49.446;6.854;2023-03-01T23:00:35;17.75;;;7.18;;
8694;SDS011;65580;49.446;6.854;2023-03-01T23:04:40;19.42;;;6.80;;
8694;SDS011;65580;49.446;6.854;2023-03-01T23:08:47;18.45;;;6.70;;
8694;SDS011;65580;49.446;6.854;2023-03-01T23:12:52;17.75;;;6.28;;
8694;SDS011;65580;49.446;6.854;2023-03-01T23:16:56;19.73;;;7.30;;
8694;SDS011;65580;49.446;6.854;2023-03-01T23:21:07;14.73;;;6.47;;
8694;SDS011;65580;49.446;6.854;2023-03-01T23:25:11;17.15;;;6.78;;
8694;SDS011;65580;49.446;6.854;2023-03-01T23:29:15;18.85;;;7.45;;
8694;SDS011;65580;49.446;6.854;2023-03-01T23:33:19;16.83;;;7.30;;
8694;SDS011;65580;49.446;6.854;2023-03-01T23:37:23;22.77;;;7.40;;
8694;SDS011;65580;49.446;6.854;2023-03-01T23:41:32;22.92;;;7.88;;
8694;SDS011;65580;49.446;6.854;2023-03-01T23:45:36;16.30;;;6.78;;
8694;SDS011;65580;49.446;6.854;2023-03-01T23:49:43;16.40;;;6.40;;
8694;SDS011;65580;49.446;6.854;2023-03-01T23:53:49;17.65;;;6.82;;
8694;SDS011;65580;49.446;6.854;2023-03-01T23:57:55;21.92;;;7.57;;
